Terminal Aerodrome Forecast
Issued by NWS

Home | Current Version | Previous Version | Text Only | Print | Product List | Glossary On
Versions: 1 2 3 4 5 6 7 8 9 10 11 12 13 14 15
000
FTUS46 KSEW 130500
TAFOLM
TAF
KOLM 130531Z 1306/1406 VRB03KT P6SM SKC
      TEMPO 1313/1316 BKN003
     FM131800 03004KT P6SM BKN100
     FM140200 20006KT P6SM BKN100=

USA.gov is the U.S. government's official web portal to all federal, state and local government web resources and services.